Tiempo atmosférico en la estación meteorológica de Palma, Puerto, Illes Balears (3 m.)



Fecha
DESCASC
Temp. máxima en grados centígrados (hora)
DESCASC
Temp. mínima en grados centígrados (hora)
DESCASC
Temp. media en grados centígrados
DESCASC
Racha de viento máxima en m/sg (hora)
DESCASC
Velocidad máxima media en intervalos de 10 minutos(hora)
DESCASC
Precipitaciones diarias en mm
DESCASC
Precipitaciones de 00:00 a 06:00 en mm
DESCASC
Precipitaciones de 06:00 a 12:00 en mm
DESCASC
Precipitaciones de 12:00 a 18:00 en mm
DESCASC
Precipitaciones de 18:00 a 24:00 en mm
DESCASC
08-12-2019 18.4 (14:20) 8.3 (07:50) 13.3 6.94 (16:10) 3.06 (16:10) 0 0 0 0 0
07-12-2019 -- (--) -- (--) -- 2.5 (08:30) 1.39 (05:20) 0 0 0 0 0
06-12-2019 19.2 (13:50) 11.1 (00:00) 15.2 3.06 (14:30) 1.67 (14:00) 0 0 0 0 0
05-12-2019 17.7 (14:40) 9.1 (00:00) 13.4 5 (13:50) 2.5 (13:50) 0 0 0 0 0
04-12-2019 16.3 (01:50) 11.1 (00:00) 13.7 16.94 (02:20) 6.39 (01:50) 43.1 20.7 19.1 3.2 0.1
03-12-2019 16.4 (21:40) 12.3 (00:00) 14.3 13.33 (13:10) 7.78 (13:10) 7.9 0 0 0 7.9
02-12-2019 15.8 (14:20) 13.6 (00:00) 14.7 11.39 (14:30) 7.5 (16:10) 10.4 10.2 0.2 0 0
01-12-2019 19.6 (13:00) 14.6 (00:00) 17.1 6.11 (10:50) 2.78 (06:30) 0 0 0 0 0
30-11-2019 19.5 (12:20) 11.4 (00:00) 15.4 5.28 (14:40) 2.78 (14:50) 0 0 0 0 0
29-11-2019 20.8 (13:30) 12.9 (00:00) 16.8 6.11 (01:10) 2.5 (14:20) 0 0 0 0 0
28-11-2019 22 (13:00) 12.2 (00:00) 17.1 10 (14:30) 3.61 (13:30) 0 0 0 0 0
27-11-2019 21.6 (12:30) 14.3 (00:00) 18 11.94 (09:30) 3.89 (09:30) 0 0 0 0 0
26-11-2019 20 (15:00) 10.6 (00:00) 15.3 8.33 (15:20) 3.33 (17:00) 0 0 0 0 0
25-11-2019 21.4 (13:50) 11.4 (00:00) 16.4 6.11 (12:20) 3.33 (03:20) 0 0 0 0 0
24-11-2019 17.2 (13:00) 11.7 (00:00) 14.5 14.44 (02:50) 5.28 (03:20) 0 0 0 0 0
23-11-2019 17.9 (11:50) 12.5 (00:00) 15.2 15 (00:50) 8.06 (00:20) 7.2 2.1 0.2 4.9 0
22-11-2019 17.9 (13:20) 12.2 (00:00) 15 16.39 (23:59) 8.89 (23:00) 25.8 1.3 11.1 0 13.4
21-11-2019 17.8 (14:30) 10 (00:00) 13.9 8.33 (13:10) 3.06 (14:10) 2.5 2.5 0 0 0
20-11-2019 16.4 (15:20) 7.6 (00:00) 12 6.39 (14:50) 2.22 (16:30) 0.1 0 0 0 0.1
19-11-2019 17 (14:40) 7.4 (00:00) 12.2 6.94 (13:10) 2.5 (13:20) 0 0 0 0 0
18-11-2019 16.3 (13:10) 9.9 (00:00) 13.1 9.44 (14:00) 5.28 (15:40) 3.8 1.9 0 0.1 1.8
17-11-2019 16.6 (14:10) 10.1 (00:00) 13.4 10 (14:30) 3.33 (13:30) 0.2 0.2 0 0 0
16-11-2019 15.1 (13:10) 9.2 (00:00) 12.2 8.61 (02:30) 4.44 (02:30) 2.9 0.1 0 2.8 0
15-11-2019 16 (13:50) 8.4 (00:00) 12.2 9.72 (05:00) 3.06 (04:40) 0.7 0.6 0.1 0 0
14-11-2019 18.4 (10:20) 9.5 (00:00) 13.9 12.22 (09:20) 6.39 (09:20) 2.1 0 0 1 1.1
13-11-2019 14.7 (13:00) 9.9 (00:00) 12.3 4.72 (15:20) 2.5 (13:20) 3.7 0 3.5 0.2 0
12-11-2019 17.2 (14:50) 10.7 (00:00) 14 7.5 (13:10) 3.61 (17:50) 0 0 0 0 0
11-11-2019 15.5 (14:50) 9.7 (00:10) 12.6 13.89 (09:00) 4.44 (15:00) 0.1 0.1 0 0 0
10-11-2019 17.1 (00:00) 9.2 (00:00) 13.2 15.28 (05:20) 5.28 (05:20) 29.2 1 10.2 1.9 16.1

Gráficas

Temp. máximas Temp. mínimas Temp. medias Precipitaciones Rachas de viento máximas Velocidades máximas media en intervalos de 10 minutos

Datos horarios

Fecha y hora oficial Temperatura (ºC) Velocidad del viento (km/h) Dirección del viento Racha (km/h) Dirección de racha Precipitación (mm) Presión (hPa) Tendencia (hPa) Humedad (%)
2019-12-09 23:00:00 14.5 9 Este 39 Noroeste 0 -- -- 50
2019-12-09 22:00:00 14.9 10 Noroeste 49 Norte 0 -- -- 50
2019-12-09 21:00:00 15.1 25 Noroeste 53 Noroeste 0 -- -- 49
2019-12-09 20:00:00 15.2 19 Noroeste 50 Noroeste 0 -- -- 49
2019-12-09 19:00:00 15.6 19 Noroeste 50 Noroeste 0 -- -- 47
2019-12-09 18:00:00 15.7 18 Noroeste 43 Noroeste 0 -- -- 47
2019-12-09 17:00:00 15.9 19 Noroeste 56 Noroeste 0 -- -- 44
2019-12-09 16:00:00 16.4 24 Noroeste 60 Noroeste 0 -- -- 42
2019-12-09 15:00:00 16.7 22 Noroeste 60 Norte 0 -- -- 40
2019-12-09 14:00:00 17.6 17 Noroeste 55 Noroeste 0 -- -- 37
2019-12-09 13:00:00 18.1 24 Noroeste 60 Norte 0 -- -- 36
2019-12-09 12:00:00 18.2 6 Norte 37 Noroeste 0 -- -- 37
2019-12-09 11:00:00 16.8 12 Noroeste 53 Noroeste 0 -- -- 39
2019-12-09 10:00:00 16.4 6 Noroeste 27 Norte 0 -- -- 41
2019-12-09 09:00:00 15.4 8 Noroeste 29 Noroeste 0 -- -- 47
2019-12-09 08:00:00 15.1 8 Noroeste 24 Noroeste 0 -- -- 54
2019-12-09 07:00:00 14.9 13 Noroeste 29 Noroeste 0 -- -- 58
2019-12-09 06:00:00 14.9 0 Calma 16 Noroeste 0 -- -- 61
2019-12-09 05:00:00 15.2 0 Calma 17 Noroeste 0 -- -- 58
2019-12-09 04:00:00 15.1 6 Noroeste 15 Noroeste 0 -- -- 62
2019-12-09 03:00:00 13.2 2 Norte 7 Nordeste 0 -- -- 86
2019-12-09 02:00:00 13.2 0 Calma 5 Nordeste 0 -- -- 87
2019-12-09 01:00:00 12.9 0 Calma 7 Norte 0 -- -- 86
2019-12-09 00:00:00 12.5 0 Calma 6 Nordeste 0 -- -- 87
2019-12-08 23:00:00 12.5 0 Calma 10 Sur 0 -- -- 87
2019-12-08 22:00:00 13.3 0 Calma 12 Sudoeste 0 -- -- 84
2019-12-08 21:00:00 12.3 0 Calma 6 Oeste 0 -- -- 86
2019-12-08 20:00:00 13.4 2 Oeste 8 Oeste 0 -- -- 81
2019-12-08 19:00:00 13.8 2 Oeste 8 Noroeste 0 -- -- 78
2019-12-08 18:00:00 14.3 0 Calma 14 Sudoeste 0 -- -- 75
2019-12-08 17:00:00 15.1 6 Sudoeste 25 Sudoeste 0 -- -- 70
2019-12-08 16:00:00 16.2 10 Sudoeste 21 Sudoeste 0 -- -- 63
2019-12-08 15:00:00 17.5 7 Sudoeste 19 Sudoeste 0 -- -- 57
2019-12-08 14:00:00 18.1 6 Sudoeste 20 Sudoeste 0 -- -- 62
2019-12-08 13:00:00 17.4 8 Sudoeste 20 Sudoeste 0 -- -- 64
2019-12-08 12:00:00 15.4 2 Sudeste 5 Sudeste 0 -- -- 77
2019-12-08 11:00:00 14.3 0 Calma 3 Sudeste 0 -- -- 71
2019-12-08 10:00:00 12 0 Calma -- -- 0 -- -- 82
2019-12-08 09:00:00 10.2 0 Calma 5 Norte 0 -- -- 91
2019-12-08 08:00:00 8.5 0 Calma 5 Norte 0 -- -- 91
2019-12-08 07:00:00 8.8 3 Norte 5 Nordeste 0 -- -- 91
2019-12-08 06:00:00 8.9 0 Calma -- -- 0 -- -- 91
2019-12-08 05:00:00 9.2 0 Calma 5 Norte 0 -- -- 90
2019-12-08 04:00:00 9.7 0 Calma 6 Norte 0 -- -- 90
2019-12-08 03:00:00 9.7 3 Norte 6 Nordeste 0 -- -- 89
2019-12-08 02:00:00 9.7 4 Norte 6 Nordeste 0 -- -- 90
2019-12-08 01:00:00 10.1 4 Nordeste 6 Norte 0 -- -- 90
2019-12-08 00:00:00 10.3 0 Calma 5 Noroeste 0 -- -- 90
2019-12-07 23:00:00 10.7 0 Calma 8 Norte 0 -- -- 89
2019-12-07 22:00:00 11.1 2 Norte 6 Noroeste 0 -- -- 89
2019-12-07 21:00:00 11.1 0 Calma 6 Norte 0 -- -- 88
2019-12-07 20:00:00 11.8 0 Calma 5 Norte 0 -- -- 87
2019-12-07 19:00:00 12.6 0 Calma 4 Norte 0 -- -- 86
2019-12-07 18:00:00 13.6 0 Calma 5 Noroeste 0 -- -- 84
2019-12-07 17:00:00 14.6 0 Calma 6 Sudoeste 0 -- -- 77
2019-12-07 16:00:00 15.1 2 Sudoeste 8 Sudoeste 0 -- -- 72
2019-12-07 15:00:00 16.5 5 Sur 9 Sudeste 0 -- -- 66
2019-12-07 14:00:00 16.7 2 Este 6 Este 0 -- -- 71
2019-12-07 13:00:00 13.5 2 Norte 4 Nordeste 0 -- -- 82
2019-12-07 12:00:00 -- 3 Nordeste 5 Norte 0 -- -- --
2019-12-07 11:00:00 -- 0 Calma 6 Nordeste 0 -- -- --
2019-12-07 10:00:00 -- 3 Noroeste 8 Noroeste 0 -- -- --
2019-12-07 09:00:00 -- 4 Noroeste 9 Noroeste 0 -- -- --
2019-12-07 08:00:00 10.5 2 Norte 7 Norte 0 -- -- 91
2019-12-07 07:00:00 10.1 3 Norte 7 Noroeste 0 -- -- 91
2019-12-07 06:00:00 10.2 3 Norte 9 Nordeste 0 -- -- 91
2019-12-07 05:00:00 10.4 0 Calma 6 Norte 0 -- -- 91
2019-12-07 04:00:00 10.9 0 Calma 8 Nordeste 0 -- -- 91
2019-12-07 03:00:00 10.9 0 Calma 5 Norte 0 -- -- 91
2019-12-07 02:00:00 11.3 0 Calma 5 Norte 0 -- -- 90
2019-12-07 01:00:00 11.9 0 Calma 5 Nordeste 0 -- -- 89
2019-12-07 00:00:00 12.1 0 Calma 6 Norte 0 -- -- 88
2019-12-06 23:00:00 12.9 3 Norte 9 Noroeste 0 -- -- 87
2019-12-06 22:00:00 13.3 3 Norte 6 Norte 0 -- -- 86
2019-12-06 21:00:00 14.1 4 Norte 8 Norte 0 -- -- 81
2019-12-06 20:00:00 14.7 2 Norte 10 Noroeste 0 -- -- 80
2019-12-06 19:00:00 14.4 0 Calma 6 Noroeste 0 -- -- 81
2019-12-06 18:00:00 14.8 0 Calma 6 Sur 0 -- -- 77
2019-12-06 17:00:00 16.1 4 Sudoeste 8 Sudoeste 0 -- -- 69
2019-12-06 16:00:00 17.2 5 Sudoeste 8 Sudoeste 0 -- -- 60
2019-12-06 15:00:00 17.9 5 Sudoeste 11 Sudoeste 0 -- -- 60
2019-12-06 14:00:00 18 6 Sur 9 Sur 0 -- -- 63
2019-12-06 13:00:00 17.2 4 Nordeste 6 Nordeste 0 -- -- 64
2019-12-06 12:00:00 17.6 3 Este 8 Este 0 -- -- 67
2019-12-06 11:00:00 15.4 3 Nordeste 7 Nordeste 0 -- -- 76
2019-12-06 10:00:00 13.8 0 Calma 6 Nordeste 0 -- -- 84
2019-12-06 09:00:00 13.3 2 Norte 8 Nordeste 0 -- -- 86
2019-12-06 08:00:00 12.1 3 Norte 5 Nordeste 0 -- -- 90
2019-12-06 07:00:00 12.2 0 Calma 5 Norte 0 -- -- 90
2019-12-06 06:00:00 11.8 4 Norte 9 Norte 0 -- -- 90
2019-12-06 05:00:00 11.7 0 Calma 5 Sudeste 0 -- -- 90
2019-12-06 04:00:00 11.8 3 Nordeste 5 Norte 0 -- -- 90
2019-12-06 03:00:00 11.4 0 Calma 6 Norte 0 -- -- 90
2019-12-06 02:00:00 11.5 3 Norte 6 Norte 0 -- -- 90
2019-12-06 01:00:00 11.6 0 Calma 6 Noroeste 0 -- -- 90
2019-12-06 00:00:00 11.1 0 Calma -- -- 0 -- -- 90
2019-12-05 23:00:00 11.5 0 Calma 5 Norte 0 -- -- 90
2019-12-05 22:00:00 11.8 4 Norte 7 Norte 0 -- -- 89
2019-12-05 21:00:00 12.4 2 Norte 6 Noroeste 0 -- -- 88
2019-12-05 20:00:00 13 0 Calma 8 Nordeste 0 -- -- 85
2019-12-05 19:00:00 13.7 5 Noroeste 9 Noroeste 0 -- -- 82
2019-12-05 18:00:00 15.2 2 Sudoeste 10 Sur 0 -- -- 76
2019-12-05 17:00:00 15.9 3 Sudoeste 13 Sudoeste 0 -- -- 72
2019-12-05 16:00:00 16.8 5 Sur 13 Sur 0 -- -- 68
2019-12-05 15:00:00 17.1 8 Sur 17 Sur 0 -- -- 68
2019-12-05 14:00:00 17.2 8 Sur 18 Sur 0 -- -- 69
2019-12-05 13:00:00 16.8 5 Sudeste 8 Sudeste 0 -- -- 70
2019-12-05 12:00:00 16.3 3 Sur 7 Sudeste 0 -- -- 68
2019-12-05 11:00:00 14 2 Nordeste 6 Este 0 -- -- 74
2019-12-05 10:00:00 13.1 0 Calma 5 Nordeste 0 -- -- 84
2019-12-05 09:00:00 10.4 0 Calma 4 Noroeste 0 -- -- 92
2019-12-05 08:00:00 9.7 0 Calma 7 Nordeste 0 -- -- 92
2019-12-05 07:00:00 9.3 0 Calma 8 Noroeste 0 -- -- 92
2019-12-05 06:00:00 9.7 0 Calma 5 Norte 0 -- -- 92
2019-12-05 05:00:00 10 0 Calma 6 Nordeste 0 -- -- 92
2019-12-05 04:00:00 10.2 0 Calma 8 Norte 0 -- -- 91
2019-12-05 03:00:00 10.5 4 Nordeste 8 Nordeste 0 -- -- 89
2019-12-05 02:00:00 10.7 0 Calma 10 Norte 0 -- -- 87
2019-12-05 01:00:00 11.2 3 Nordeste 9 Norte 0 -- -- 83
2019-12-05 00:00:00 11.5 3 Norte 9 Norte 0 -- -- 80
2019-12-04 23:00:00 12.1 5 Norte 9 Norte 0 -- -- 76
2019-12-04 22:00:00 12.5 4 Nordeste 16 Norte 0 -- -- 75
2019-12-04 21:00:00 12.1 8 Norte 17 Norte 0.1 -- -- 82
2019-12-04 20:00:00 12.1 5 Norte 16 Noroeste 0 -- -- 84
2019-12-04 19:00:00 11.9 6 Norte 12 Norte 0 -- -- 85
2019-12-04 18:00:00 12.3 6 Norte 15 Nordeste 0 -- -- 84
2019-12-04 17:00:00 12.3 9 Nordeste 17 Nordeste 0 -- -- 82
2019-12-04 16:00:00 11.9 10 Nordeste 26 Nordeste 0 -- -- 83
2019-12-04 15:00:00 12.3 13 Nordeste 26 Nordeste 0.1 -- -- 83
2019-12-04 14:00:00 12.1 9 Norte 17 Nordeste 2.1 -- -- 89
2019-12-04 13:00:00 11.9 9 Norte 20 Norte 1 -- -- 90
2019-12-04 12:00:00 12 10 Noroeste 21 Nordeste 4.2 -- -- 91
2019-12-04 11:00:00 13.3 0 Calma 17 Nordeste 7.3 -- -- 90
2019-12-04 10:00:00 14.1 6 Norte 19 Norte 0 -- -- 79
2019-12-04 09:00:00 13.3 7 Norte 26 Nordeste 0 -- -- 76
2019-12-04 08:00:00 14.2 6 Norte 13 Norte 0 -- -- 85
2019-12-04 07:00:00 13.6 8 Norte 28 Este 7.6 -- -- 85
2019-12-04 06:00:00 14.3 17 Nordeste 30 Este 0.3 -- -- 77
2019-12-04 05:00:00 13.1 16 Norte 29 Nordeste 4.4 -- -- 87
2019-12-04 04:00:00 11.4 16 Noroeste 36 Noroeste 2.7 -- -- 88
2019-12-04 03:00:00 12.4 8 Nordeste 61 Este 9.4 -- -- 83
2019-12-04 02:00:00 16 15 Nordeste 45 Nordeste 0.5 -- -- 82
2019-12-04 01:00:00 16 14 Nordeste 38 Nordeste 3.4 -- -- 84
2019-12-04 00:00:00 15.9 17 Nordeste 38 Este 0.4 -- -- 86
2019-12-03 23:00:00 15.4 15 Nordeste 32 Nordeste 7.5 -- -- 87
2019-12-03 22:00:00 16.2 15 Nordeste 34 Nordeste 0 -- -- 76
2019-12-03 21:00:00 16.3 14 Nordeste 34 Este 0 -- -- 74
2019-12-03 20:00:00 15.9 11 Nordeste 32 Nordeste 0 -- -- 70
2019-12-03 19:00:00 15.2 12 Nordeste 26 Nordeste 0 -- -- 70
2019-12-03 18:00:00 14.8 14 Nordeste 30 Este 0 -- -- 72
2019-12-03 17:00:00 14.8 18 Nordeste 41 Nordeste 0 -- -- 70
2019-12-03 16:00:00 15.1 23 Nordeste 45 Nordeste 0 -- -- 67
2019-12-03 15:00:00 15.4 20 Nordeste 41 Nordeste 0 -- -- 65
2019-12-03 14:00:00 15.1 18 Nordeste 48 Nordeste 0 -- -- 62
2019-12-03 13:00:00 14.7 20 Nordeste 39 Este 0 -- -- 60
2019-12-03 12:00:00 13.8 20 Nordeste 36 Nordeste 0 -- -- 60
2019-12-03 11:00:00 13.8 24 Nordeste 41 Nordeste 0 -- -- 60
2019-12-03 10:00:00 13.9 14 Nordeste 31 Nordeste 0 -- -- 62
2019-12-03 09:00:00 12.8 11 Nordeste 28 Nordeste 0 -- -- 66
2019-12-03 08:00:00 12.7 10 Nordeste 25 Nordeste 0 -- -- 66
2019-12-03 07:00:00 12.8 14 Nordeste 44 Nordeste 0 -- -- 64
2019-12-03 06:00:00 12.7 18 Nordeste 39 Este 0 -- -- 67
2019-12-03 05:00:00 12.8 20 Nordeste 40 Este 0 -- -- 66
2019-12-03 04:00:00 13 18 Nordeste 41 Nordeste 0 -- -- 67
2019-12-03 03:00:00 13.5 13 Nordeste 37 Nordeste 0 -- -- 66
2019-12-03 02:00:00 13.6 15 Nordeste 38 Nordeste 0 -- -- 66
2019-12-03 01:00:00 13.8 15 Nordeste 37 Norte 0 -- -- 65
2019-12-03 00:00:00 13.9 18 Nordeste 38 Nordeste 0 -- -- 62
2019-12-02 23:00:00 14 17 Nordeste 33 Nordeste 0 -- -- 65
2019-12-02 22:00:00 13.8 16 Nordeste 31 Nordeste 0 -- -- 66
2019-12-02 21:00:00 13.8 14 Nordeste 30 Nordeste 0 -- -- 66
2019-12-02 20:00:00 13.7 15 Nordeste 30 Nordeste 0 -- -- 65
2019-12-02 19:00:00 13.8 15 Nordeste 30 Nordeste 0 -- -- 66
2019-12-02 18:00:00 14 15 Nordeste 36 Nordeste 0 -- -- 66
2019-12-02 17:00:00 14.7 21 Nordeste 40 Nordeste 0 -- -- 64
2019-12-02 16:00:00 15.2 23 Nordeste 41 Nordeste 0 -- -- 62
2019-12-02 15:00:00 15.5 18 Nordeste 41 Nordeste 0 -- -- 64
2019-12-02 14:00:00 15.3 23 Nordeste 38 Nordeste 0 -- -- 66
2019-12-02 13:00:00 15.2 19 Nordeste 36 Nordeste 0 -- -- 65
2019-12-02 12:00:00 14.6 17 Nordeste 35 Nordeste 0.2 -- -- 72
2019-12-02 11:00:00 14.7 12 Nordeste 26 Nordeste 0 -- -- 74
2019-12-02 10:00:00 14.4 14 Nordeste 31 Nordeste 0 -- -- 77
2019-12-02 09:00:00 14.3 13 Nordeste 28 Nordeste 0 -- -- 81
2019-12-02 08:00:00 14.3 13 Nordeste 26 Nordeste 0 -- -- 86
2019-12-02 07:00:00 14.3 11 Nordeste 21 Nordeste 0 -- -- 86
2019-12-02 06:00:00 14.3 10 Nordeste 18 Nordeste 1.1 -- -- 89
2019-12-02 05:00:00 14.5 6 Norte 19 Noroeste 6.3 -- -- 91
2019-12-02 04:00:00 14.8 5 Norte 13 Nordeste 2.8 -- -- 88
2019-12-02 03:00:00 15.2 9 Nordeste 17 Norte 0 -- -- 82
2019-12-02 02:00:00 14.9 3 Norte 13 Nordeste 0 -- -- 84
2019-12-02 01:00:00 14.9 6 Norte 10 Noroeste 0 -- -- 84
2019-12-02 00:00:00 15.3 0 Calma 8 Nordeste 0 -- -- 84
2019-12-01 23:00:00 15.1 4 Nordeste 12 Noroeste 0 -- -- 83
2019-12-01 22:00:00 14.9 6 Norte 12 Nordeste 0 -- -- 81
2019-12-01 21:00:00 14.9 3 Norte 9 Norte 0 -- -- 83
2019-12-01 20:00:00 14.9 2 Norte 5 Norte 0 -- -- 82
2019-12-01 19:00:00 15.7 0 Calma 7 Oeste 0 -- -- 80
2019-12-01 18:00:00 16.4 3 Sudoeste 9 Sudoeste 0 -- -- 80
2019-12-01 17:00:00 16.9 4 Sudoeste 16 Sudoeste 0 -- -- 77
2019-12-01 16:00:00 17.8 9 Sudoeste 21 Sudoeste 0 -- -- 65
2019-12-01 15:00:00 19.1 9 Sudoeste 21 Sudoeste 0 -- -- 65
2019-12-01 14:00:00 18.6 8 Sur 21 Sudoeste 0 -- -- 66
2019-12-01 13:00:00 19.3 7 Sudoeste 20 Oeste 0 -- -- 65
2019-12-01 12:00:00 18.8 7 Sudoeste 19 Sur 0 -- -- 67
2019-12-01 11:00:00 18.3 8 Sudoeste 22 Sudoeste 0 -- -- 72
2019-12-01 10:00:00 17.6 8 Sudoeste 19 Sudoeste 0 -- -- 77
2019-12-01 09:00:00 16.7 5 Sudoeste 14 Sudoeste 0 -- -- 85
2019-12-01 08:00:00 16.1 3 Sudoeste 17 Sur 0 -- -- 86
2019-12-01 07:00:00 16.3 9 Sur 19 Sudoeste 0 -- -- 84
2019-12-01 06:00:00 16 5 Sudoeste 12 Sudoeste 0 -- -- 81
2019-12-01 05:00:00 16.1 0 Calma 8 Oeste 0 -- -- 80
2019-12-01 04:00:00 16.2 0 Calma 12 Sudoeste 0 -- -- 80
2019-12-01 03:00:00 16.5 3 Sudoeste 15 Sudoeste 0 -- -- 80
2019-12-01 02:00:00 16.5 0 Calma 16 Sudoeste 0 -- -- 83
2019-12-01 01:00:00 16.7 7 Sudoeste 15 Sur 0 -- -- 83
2019-12-01 00:00:00 16.3 3 Sudoeste 9 Sur 0 -- -- 87
2019-11-30 23:00:00 16.3 3 Sudoeste 7 Sudoeste 0 -- -- 87
2019-11-30 22:00:00 16.5 0 Calma 14 Sur 0 -- -- 87
2019-11-30 21:00:00 16.8 6 Sur 15 Sur 0 -- -- 87
2019-11-30 20:00:00 16.8 5 Sur 13 Sur 0 -- -- 84
2019-11-30 19:00:00 16.7 6 Sur 13 Sur 0 -- -- 83
2019-11-30 18:00:00 16.7 5 Sur 15 Sudoeste 0 -- -- 84
2019-11-30 17:00:00 17 8 Sur 16 Sur 0 -- -- 84
2019-11-30 16:00:00 17.4 8 Sur 17 Sur 0 -- -- 80
2019-11-30 15:00:00 18.2 9 Sur 19 Sur 0 -- -- 77
2019-11-30 14:00:00 18.4 5 Sur 12 Sur 0 -- -- 76
2019-11-30 13:00:00 17.8 8 Sur 13 Sudeste 0 -- -- 77
2019-11-30 12:00:00 17.7 4 Sur 10 Sur 0 -- -- 74
2019-11-30 11:00:00 16.3 3 Este 6 Sudeste 0 -- -- 77
2019-11-30 10:00:00 14.8 2 Este 6 Nordeste 0 -- -- 83
2019-11-30 09:00:00 13 3 Norte 6 Nordeste 0 -- -- 91
2019-11-30 08:00:00 11.9 4 Norte 8 Norte 0 -- -- 91
2019-11-30 07:00:00 11.7 0 Calma 3 Norte 0 -- -- 90
2019-11-30 06:00:00 12.2 3 Norte 5 Norte 0 -- -- 90
2019-11-30 05:00:00 12.5 0 Calma 4 Norte 0 -- -- 89
2019-11-30 04:00:00 13.2 0 Calma 5 Nordeste 0 -- -- 86
2019-11-30 03:00:00 14 0 Calma 6 Nordeste 0 -- -- 84
2019-11-30 02:00:00 14.9 3 Norte 9 Norte 0 -- -- 80
2019-11-30 01:00:00 14.4 0 Calma 7 Norte 0 -- -- 83
2019-11-30 00:00:00 14 2 Norte 8 Nordeste 0 -- -- 84
2019-11-29 23:00:00 13.5 0 Calma 6 Norte 0 -- -- 85
2019-11-29 22:00:00 13.4 0 Calma 5 Nordeste 0 -- -- 83
2019-11-29 21:00:00 14 0 Calma 7 Noroeste 0 -- -- 80
2019-11-29 20:00:00 14.9 0 Calma 6 Norte 0 -- -- 78
2019-11-29 19:00:00 15.6 3 Norte 8 Norte 0 -- -- 83
2019-11-29 18:00:00 16.5 0 Calma 10 Este 0 -- -- 85
2019-11-29 17:00:00 18.1 2 Norte 11 Sudoeste 0 -- -- 74
2019-11-29 16:00:00 18.9 2 Oeste 16 Sudoeste 0 -- -- 74
2019-11-29 15:00:00 19.8 6 Sudoeste 19 Sudoeste 0 -- -- 62
2019-11-29 14:00:00 20 8 Sudoeste 17 Sudoeste 0 -- -- 64
2019-11-29 13:00:00 20.5 5 Sudoeste 19 Oeste 0 -- -- 64
2019-11-29 12:00:00 19.9 6 Sudoeste 12 Sudoeste 0 -- -- 64
2019-11-29 11:00:00 17.9 0 Calma 8 Este 0 -- -- 64
2019-11-29 10:00:00 15.2 0 Calma 9 Nordeste 0 -- -- 74
2019-11-29 09:00:00 14.6 3 Norte 6 Noroeste 0 -- -- 77
2019-11-29 08:00:00 13.3 0 Calma 5 Oeste 0 -- -- 85
2019-11-29 07:00:00 13 2 Noroeste 8 Nordeste 0 -- -- 86
2019-11-29 06:00:00 13.1 0 Calma 11 Oeste 0 -- -- 83
2019-11-29 05:00:00 14.4 0 Calma 22 Oeste 0 -- -- 76
2019-11-29 04:00:00 15.7 9 Oeste 22 Oeste 0 -- -- 70
2019-11-29 03:00:00 15.3 3 Oeste 12 Oeste 0 -- -- 71
2019-11-29 02:00:00 15 0 Calma 22 Sudoeste 0 -- -- 72
2019-11-29 01:00:00 15.6 8 Sudoeste 21 Sudoeste 0 -- -- 73
2019-11-29 00:00:00 15.4 5 Sudoeste 20 Sudoeste 0 -- -- 75
2019-11-28 23:00:00 13.2 0 Calma 4 Norte 0 -- -- 87
2019-11-28 22:00:00 13.6 0 Calma 6 Noroeste 0 -- -- 84
2019-11-28 21:00:00 14.3 0 Calma 8 Oeste 0 -- -- 80
2019-11-28 20:00:00 15.7 4 Sudoeste 16 Sudoeste 0 -- -- 76
2019-11-28 19:00:00 16.3 5 Oeste 17 Sudoeste 0 -- -- 68
2019-11-28 18:00:00 16.3 3 Nordeste 14 Noroeste 0 -- -- 65
2019-11-28 17:00:00 17.4 6 Oeste 18 Noroeste 0 -- -- 55
2019-11-28 16:00:00 17.8 8 Sudoeste 36 Oeste 0 -- -- 56
2019-11-28 15:00:00 18.8 9 Oeste 36 Oeste 0 -- -- 60
2019-11-28 14:00:00 19.6 9 Sudoeste 30 Sudoeste 0 -- -- 60
2019-11-28 13:00:00 21.7 4 Oeste 20 Oeste 0 -- -- 44
2019-11-28 12:00:00 20.5 6 Sudoeste 18 Sudoeste 0 -- -- 48
2019-11-28 11:00:00 19.2 8 Sudoeste 19 Sudoeste 0 -- -- 51
2019-11-28 10:00:00 18.7 4 Sudoeste 17 Oeste 0 -- -- 54
2019-11-28 09:00:00 17.2 5 Oeste 19 Noroeste 0 -- -- 62
2019-11-28 08:00:00 14.9 0 Calma 12 Norte 0 -- -- 68
2019-11-28 07:00:00 14.1 0 Calma 8 Sudoeste 0 -- -- 70
2019-11-28 06:00:00 15.4 0 Calma 13 Oeste 0 -- -- 63
2019-11-28 05:00:00 12.9 0 Calma 10 Sudoeste 0 -- -- 79
2019-11-28 04:00:00 12.3 2 Sudoeste -- -- -- -- -- 84
2019-11-28 03:00:00 13.6 4 Nordeste 8 Nordeste 0 -- -- 79
2019-11-28 02:00:00 14 0 Calma 11 Nordeste 0 -- -- 74
2019-11-28 01:00:00 14.6 2 Oeste 8 Noroeste 0 -- -- 72
2019-11-28 00:00:00 14.4 0 Calma 8 Nordeste 0 -- -- 70
2019-11-27 23:00:00 15.3 2 Norte 15 Sur 0 -- -- 67
2019-11-27 22:00:00 15.1 0 Calma 13 Noroeste 0 -- -- 72
2019-11-27 21:00:00 15.7 0 Calma 9 Sudoeste 0 -- -- 68
2019-11-27 20:00:00 16.4 0 Calma 12 Oeste 0 -- -- 67
2019-11-27 19:00:00 16.4 2 Sudoeste 9 Noroeste 0 -- -- 70
2019-11-27 18:00:00 17.3 0 Calma 10 Oeste 0 -- -- 64
2019-11-27 17:00:00 18.4 3 Oeste 14 Sudoeste 0 -- -- 60
2019-11-27 16:00:00 19.2 3 Noroeste 22 Oeste 0 -- -- 57
2019-11-27 15:00:00 19.5 7 Oeste 25 Noroeste 0 -- -- 56
2019-11-27 14:00:00 20.4 6 Noroeste 23 Oeste 0 -- -- 50
2019-11-27 06:00:00 17.4 7 Sudoeste 28 Sudoeste 0 -- -- 78
2019-11-27 05:00:00 17 7 Sudoeste 21 Sur 0 -- -- 82
2019-11-27 04:00:00 16.8 9 Sudoeste 31 Sudoeste 0 -- -- 86
2019-11-27 03:00:00 16.6 6 Sudoeste 21 Sudoeste 0 -- -- 87
2019-11-27 02:00:00 16.6 5 Sudoeste 26 Oeste 0 -- -- 87
2019-11-27 01:00:00 16.6 5 Sudoeste 22 Oeste 0 -- -- 87
2019-11-27 00:00:00 16.7 3 Sudoeste 18 Sudoeste 0 -- -- 87
2019-11-26 23:00:00 16.5 2 Sudoeste 16 Sudoeste 0 -- -- 87
2019-11-26 22:00:00 16.5 3 Sudoeste 17 Sudoeste 0 -- -- 85
2019-11-26 21:00:00 16.3 5 Sudoeste 16 Oeste 0 -- -- 84
2019-11-26 20:00:00 16.3 4 Sudoeste 14 Oeste 0 -- -- 85
2019-11-26 19:00:00 16.1 0 Calma 11 Sudoeste 0 -- -- 84
2019-11-26 18:00:00 16.9 4 Sudoeste 21 Sudoeste 0 -- -- 84
2019-11-26 17:00:00 17.5 12 Sur 24 Sudoeste 0 -- -- 75
2019-11-26 16:00:00 18.3 10 Sudoeste 30 Oeste 0 -- -- 59
2019-11-26 15:00:00 19.7 6 Sudoeste 22 Sudoeste 0 -- -- 55
2019-11-26 14:00:00 19.3 7 Sudoeste 22 Sur 0 -- -- 65
2019-11-26 13:00:00 18.8 10 Sur 18 Sur 0 -- -- 70
2019-11-26 12:00:00 17.7 6 Sur 14 Sudoeste 0 -- -- 75
2019-11-26 11:00:00 17.6 0 Calma 8 Este 0 -- -- 70
2019-11-26 10:00:00 15.4 5 Nordeste 10 Nordeste 0 -- -- 76
2019-11-26 09:00:00 13.8 3 Nordeste 7 Nordeste 0 -- -- 84
2019-11-26 08:00:00 12.6 0 Calma 6 Nordeste 0 -- -- 84
2019-11-26 07:00:00 11.2 3 Norte 6 Norte 0 -- -- 86
2019-11-26 06:00:00 11 2 Nordeste 5 Norte 0 -- -- 86
2019-11-26 05:00:00 10.8 0 Calma 4 Norte 0 -- -- 86
2019-11-26 04:00:00 11.2 0 Calma 6 Norte 0 -- -- 84
2019-11-26 03:00:00 11.5 0 Calma 5 Nordeste 0 -- -- 83
2019-11-26 02:00:00 11.5 3 Norte 6 Norte 0 -- -- 82
2019-11-26 01:00:00 11.8 4 Norte 9 Nordeste 0 -- -- 80
2019-11-26 00:00:00 12.3 4 Norte 8 Norte 0 -- -- 76
2019-11-25 23:00:00 12.7 3 Norte 6 Noroeste 0 -- -- 76
2019-11-25 22:00:00 13.3 0 Calma 8 Nordeste 0 -- -- 73
2019-11-25 21:00:00 14 0 Calma 6 Sur 0 -- -- 67
2019-11-25 20:00:00 14.7 3 Noroeste 6 Noroeste 0 -- -- 63
2019-11-25 19:00:00 15.4 4 Noroeste 14 Noroeste 0 -- -- 60
2019-11-25 18:00:00 15.8 0 Calma 7 Este 0 -- -- 58
2019-11-25 17:00:00 17.4 0 Calma 16 Norte 0 -- -- 51
2019-11-25 16:00:00 18.8 9 Noroeste 18 Norte 0 -- -- 46
2019-11-25 15:00:00 19.9 8 Norte 21 Nordeste 0 -- -- 43
2019-11-25 14:00:00 21.1 4 Sudoeste 19 Oeste 0 -- -- 47
2019-11-25 13:00:00 19.8 6 Oeste 22 Sudoeste 0 -- -- 52
2019-11-25 12:00:00 19.7 6 Oeste 18 Oeste 0 -- -- 57
2019-11-25 11:00:00 18.1 6 Sudoeste 15 Sudoeste 0 -- -- 61
2019-11-25 10:00:00 16.1 4 Sur 8 Sur 0 -- -- 67
2019-11-25 09:00:00 15.7 3 Sudeste 13 Este 0 -- -- 64
2019-11-25 08:00:00 12.5 2 Norte 6 Noroeste 0 -- -- 76
2019-11-25 07:00:00 13.7 2 Nordeste 18 Sudoeste 0 -- -- 68
2019-11-25 06:00:00 14.2 4 Sudoeste 19 Sudeste 0 -- -- 64
2019-11-25 05:00:00 12.7 3 Oeste 8 Sudoeste 0 -- -- 67
2019-11-25 04:00:00 13.3 3 Noroeste 21 Noroeste 0 -- -- 62
2019-11-25 03:00:00 12.3 2 Oeste 9 Norte 0 -- -- 63
2019-11-25 02:00:00 12.1 2 Oeste 9 Noroeste 0 -- -- 62
2019-11-25 01:00:00 12.6 3 Oeste 9 Noroeste 0 -- -- 61
2019-11-25 00:00:00 12.2 4 Noroeste 10 Noroeste 0 -- -- 63
2019-11-24 23:00:00 12.6 4 Noroeste 9 Oeste 0 -- -- 65
2019-11-24 22:00:00 12.2 0 Calma 10 Noroeste 0 -- -- 63
2019-11-24 21:00:00 13.8 4 Oeste 10 Noroeste 0 -- -- 55
2019-11-24 20:00:00 14.5 4 Noroeste 16 Norte 0 -- -- 54
2019-11-24 19:00:00 14.4 3 Oeste 12 Sudoeste 0 -- -- 54
2019-11-24 18:00:00 14.6 0 Calma 15 Oeste 0 -- -- 54
2019-11-24 17:00:00 14.7 3 Noroeste 22 Nordeste 0 -- -- 52
2019-11-24 16:00:00 15.4 9 Noroeste 20 Norte 0 -- -- 49
2019-11-24 15:00:00 15.8 10 Noroeste 28 Oeste 0 -- -- 47
2019-11-24 14:00:00 16.2 8 Norte 28 Noroeste 0 -- -- 46
2019-11-24 13:00:00 17.2 7 Norte 38 Noroeste 0 -- -- 47
2019-11-24 12:00:00 15.9 10 Noroeste 30 Noroeste 0 -- -- 47
2019-11-24 11:00:00 15.6 18 Noroeste 37 Noroeste 0 -- -- 47
2019-11-24 10:00:00 15.4 14 Noroeste 43 Oeste 0 -- -- 47
2019-11-24 09:00:00 14.4 0 Calma 34 Noroeste 0 -- -- 50
2019-11-24 08:00:00 14.1 9 Noroeste 40 Norte 0 -- -- 48
2019-11-24 07:00:00 14.1 10 Noroeste 40 Noroeste 0 -- -- 47
2019-11-24 06:00:00 14.5 8 Noroeste 39 Noroeste 0 -- -- 48
2019-11-24 05:00:00 14.3 9 Noroeste 44 Noroeste 0 -- -- 50
2019-11-24 04:00:00 14.4 15 Noroeste 43 Oeste 0 -- -- 48
2019-11-24 03:00:00 14.4 15 Noroeste 52 Noroeste 0 -- -- 47
2019-11-24 02:00:00 14.4 10 Noroeste 33 Noroeste 0 -- -- 49
2019-11-24 01:00:00 14.8 7 Noroeste 35 Oeste 0 -- -- 47
2019-11-24 00:00:00 14.9 9 Noroeste 36 Noroeste 0 -- -- 48
2019-11-23 23:00:00 15 10 Noroeste 40 Norte 0 -- -- 44
2019-11-23 22:00:00 15.1 7 Noroeste 49 Noroeste 0 -- -- 48
2019-11-23 21:00:00 15.5 16 Noroeste 39 Noroeste 0 -- -- 45
2019-11-23 20:00:00 15.9 13 Noroeste 46 Noroeste 0 -- -- 42
2019-11-23 19:00:00 15.3 4 Noroeste 39 Noroeste 0 -- -- 45
2019-11-23 18:00:00 15.3 10 Noroeste 28 Noroeste 0 -- -- 50
2019-11-23 17:00:00 14.8 5 Oeste 38 Noroeste 0 -- -- 57
2019-11-23 16:00:00 14.7 16 Noroeste 42 Noroeste 0.1 -- -- 51
2019-11-23 15:00:00 14.8 12 Noroeste 34 Noroeste 0.1 -- -- 57
2019-11-23 14:00:00 13.9 6 Sudoeste 18 Sur 0.2 -- -- 74
2019-11-23 13:00:00 12.8 0 Calma 29 Noroeste 4.5 -- -- 76
2019-11-23 12:00:00 17.1 2 Oeste 28 Sudoeste 0.2 -- -- 57
2019-11-23 11:00:00 15.8 9 Oeste 37 Oeste 0 -- -- 54
2019-11-23 10:00:00 15.7 10 Oeste 37 Sudoeste 0 -- -- 53
2019-11-23 09:00:00 16.3 13 Oeste 44 Oeste 0 -- -- 51
2019-11-23 08:00:00 16.4 7 Oeste 31 Oeste 0 -- -- 47
2019-11-23 07:00:00 17 8 Oeste 28 Oeste 0 -- -- 47
2019-11-23 06:00:00 16.2 6 Sudoeste 22 Oeste 0 -- -- 69
2019-11-23 05:00:00 16.4 6 Oeste 27 Sudoeste 0 -- -- 67
2019-11-23 04:00:00 16.9 6 Sudoeste 36 Oeste 0 -- -- 84
2019-11-23 03:00:00 17.3 16 Sudoeste 42 Sudoeste 0.4 -- -- 84
2019-11-23 02:00:00 17.3 14 Sudoeste 39 Sur 0 -- -- 84
2019-11-23 01:00:00 16.8 25 Sur 54 Sur 1.7 -- -- 85
2019-11-23 00:00:00 16.2 28 Sur 59 Sur 1.8 -- -- 89
2019-11-22 23:00:00 -- 32 Sur 54 Sudoeste 6 -- -- --
2019-11-22 22:00:00 15.6 25 Sur 52 Sur 4.6 -- -- 90
2019-11-22 21:00:00 16.4 29 Sur 53 Sudoeste 1 -- -- 83
2019-11-22 20:00:00 17.3 23 Sur 40 Sur 0 -- -- 77
2019-11-22 19:00:00 17 21 Sur 45 Sudoeste 0 -- -- 77
2019-11-22 18:00:00 17.3 21 Sur 42 Sur 0 -- -- 75
2019-11-22 17:00:00 17.3 17 Sur 34 Sur 0 -- -- 77
2019-11-22 16:00:00 17.3 19 Sur 34 Sur 0 -- -- 77
2019-11-22 15:00:00 17.2 15 Sudoeste 35 Sudoeste 0 -- -- 77
2019-11-22 14:00:00 17.7 13 Sudoeste 30 Sur 0 -- -- 76
2019-11-22 13:00:00 17.5 10 Sudoeste 29 Oeste 0 -- -- 76
2019-11-22 12:00:00 16.7 5 Sudoeste 21 Oeste 1.6 -- -- 85
2019-11-22 11:00:00 14.3 4 Norte 10 Norte 0.1 -- -- 90
2019-11-22 10:00:00 13.6 4 Norte 14 Norte 1.1 -- -- 91
2019-11-22 09:00:00 13.3 3 Norte 11 Nordeste 4.6 -- -- 91
2019-11-22 08:00:00 13 4 Norte 11 Norte 3.7 -- -- 91
2019-11-22 07:00:00 12.6 4 Norte 11 Norte 0 -- -- 90
2019-11-22 06:00:00 13 3 Norte 7 Nordeste 0 -- -- 90
2019-11-22 05:00:00 13.1 0 Calma 8 Nordeste 0.8 -- -- 90
2019-11-22 04:00:00 12.9 2 Nordeste 6 Nordeste 0.5 -- -- 89
2019-11-22 03:00:00 12.8 0 Calma 4 Norte 0 -- -- 88
2019-11-22 02:00:00 12.6 0 Calma 6 Norte 0 -- -- 86
2019-11-22 01:00:00 12.6 3 Norte 6 Noroeste 0 -- -- 82
2019-11-22 00:00:00 12.4 2 Norte 7 Noroeste 0 -- -- 81
2019-11-21 23:00:00 12.1 4 Norte 7 Noroeste 0 -- -- 80
2019-11-21 22:00:00 12.5 3 Norte 6 Noroeste 0 -- -- 79
2019-11-21 21:00:00 12.6 2 Nordeste 6 Norte 0 -- -- 77
2019-11-21 20:00:00 12.9 0 Calma 7 Noroeste 0 -- -- 76
2019-11-21 19:00:00 13.7 0 Calma 6 Norte 0 -- -- 69
2019-11-21 18:00:00 14.4 0 Calma 7 Oeste 0 -- -- 63
2019-11-21 17:00:00 15.2 2 Oeste 17 Oeste 0 -- -- 59
2019-11-21 16:00:00 15.6 3 Sudoeste 18 Oeste 0 -- -- 55
2019-11-21 15:00:00 16.2 6 Oeste 25 Sudoeste 0 -- -- 53
2019-11-21 14:00:00 17.5 10 Sudoeste 30 Sudoeste 0 -- -- 50
2019-11-21 13:00:00 17.3 4 Oeste 26 Sudoeste 0 -- -- 54
2019-11-21 12:00:00 17.2 7 Sudoeste 27 Sudoeste 0 -- -- 53
2019-11-21 11:00:00 15.7 6 Sudoeste 24 Sudoeste 0 -- -- 60
2019-11-21 10:00:00 15.2 5 Oeste 13 Sudoeste 0 -- -- 64
2019-11-21 09:00:00 11.8 0 Calma 6 Noroeste 0 -- -- 89
2019-11-21 08:00:00 10.1 0 Calma 5 Nordeste 0 -- -- 91
2019-11-21 07:00:00 10.4 0 Calma 7 Norte 0 -- -- 91
2019-11-21 06:00:00 10.8 3 Norte 7 Nordeste 0 -- -- 90
2019-11-21 05:00:00 11.5 0 Calma 8 Norte 0.1 -- -- 90
2019-11-21 04:00:00 11.5 0 Calma 8 Oeste 2.4 -- -- 89
2019-11-21 03:00:00 11.6 3 Norte 8 Norte 0 -- -- 82
2019-11-21 02:00:00 10.8 5 Norte 8 Norte 0 -- -- 88
2019-11-21 01:00:00 10.9 0 Calma 7 Norte 0 -- -- 88
2019-11-21 00:00:00 11 2 Norte 6 Norte 0 -- -- 87
2019-11-20 23:00:00 11.2 2 Norte 7 Norte 0 -- -- 86
2019-11-20 22:00:00 11.3 2 Norte 8 Noroeste 0 -- -- 86
2019-11-20 21:00:00 11.7 3 Norte 13 Noroeste 0 -- -- 83
2019-11-20 20:00:00 12.1 6 Noroeste 12 Noroeste 0.1 -- -- 81
2019-11-20 19:00:00 12.6 5 Norte 12 Norte 0 -- -- 75
2019-11-20 18:00:00 12.7 5 Norte 12 Norte 0 -- -- 75
2019-11-20 17:00:00 13.4 5 Norte 14 Norte 0 -- -- 75
2019-11-20 16:00:00 14.1 6 Norte 14 Este 0 -- -- 67
2019-11-20 15:00:00 15.2 8 Sudeste 23 Sudeste 0 -- -- 72
2019-11-20 14:00:00 14.7 3 Nordeste 9 Nordeste 0 -- -- 57
2019-11-20 13:00:00 14.1 5 Nordeste 10 Este 0 -- -- 60
2019-11-20 12:00:00 13.3 5 Norte 10 Nordeste 0 -- -- 60
2019-11-20 11:00:00 12.9 5 Norte 12 Norte 0 -- -- 63
2019-11-20 10:00:00 11.6 7 Norte 12 Nordeste 0 -- -- 67
2019-11-20 09:00:00 10.2 6 Nordeste 10 Nordeste 0 -- -- 74
2019-11-20 08:00:00 9.1 4 Nordeste 7 Nordeste 0 -- -- 76
2019-11-20 07:00:00 8.4 3 Norte 7 Nordeste 0 -- -- 80
2019-11-20 06:00:00 7.8 3 Nordeste 7 Nordeste 0 -- -- 81
2019-11-20 05:00:00 8.4 4 Nordeste 8 Nordeste 0 -- -- 79
2019-11-20 04:00:00 8.5 3 Norte 6 Norte 0 -- -- 77
2019-11-20 03:00:00 8.2 3 Nordeste 7 Nordeste 0 -- -- 77
2019-11-20 02:00:00 7.9 3 Norte 8 Norte 0 -- -- 78
2019-11-20 01:00:00 8 4 Norte 10 Nordeste 0 -- -- 76
2019-11-20 00:00:00 8.6 5 Norte 9 Norte 0 -- -- 72
2019-11-19 23:00:00 9.6 5 Nordeste 9 Nordeste 0 -- -- 67
2019-11-19 22:00:00 9.5 6 Nordeste 10 Nordeste 0 -- -- 66
2019-11-19 21:00:00 9.3 7 Nordeste 11 Nordeste 0 -- -- 62
2019-11-19 20:00:00 10.2 0 Calma 11 Noroeste 0 -- -- 57
2019-11-19 19:00:00 11.3 8 Noroeste 12 Noroeste 0 -- -- 54
2019-11-19 18:00:00 11.5 2 Noroeste 10 Oeste 0 -- -- 55
2019-11-19 17:00:00 13.7 4 Oeste 15 Oeste 0 -- -- 44
2019-11-19 16:00:00 14.9 6 Oeste 21 Sudoeste 0 -- -- 40
2019-11-19 15:00:00 15.5 6 Noroeste 18 Oeste 0 -- -- 40
2019-11-19 14:00:00 15.9 5 Sudoeste 25 Oeste 0 -- -- 44
2019-11-19 13:00:00 16.2 6 Sudoeste 19 Sudoeste 0 -- -- 46
2019-11-19 12:00:00 15.6 5 Oeste 16 Noroeste 0 -- -- 47
2019-11-19 11:00:00 14.1 5 Sudeste 12 Este 0 -- -- 68
2019-11-19 10:00:00 11.8 2 Nordeste 6 Nordeste 0 -- -- 72
2019-11-19 09:00:00 9.4 3 Nordeste 7 Nordeste 0 -- -- 84
2019-11-19 08:00:00 7.8 3 Norte 7 Norte 0 -- -- 90
2019-11-19 07:00:00 7.5 4 Nordeste 6 Norte 0 -- -- 90
2019-11-19 06:00:00 8.1 2 Norte 8 Nordeste 0 -- -- 88
2019-11-19 05:00:00 8.3 4 Norte 6 Norte 0 -- -- 89
2019-11-19 04:00:00 8.6 2 Norte 8 Sudoeste 0 -- -- 90
2019-11-19 03:00:00 9.2 0 Calma 9 Noroeste 0 -- -- 85
2019-11-19 02:00:00 9.9 4 Noroeste 11 Noroeste 0 -- -- 82
2019-11-19 01:00:00 10.3 7 Noroeste 13 Noroeste 0 -- -- 78
2019-11-19 00:00:00 10.1 9 Noroeste 22 Noroeste 1.3 -- -- 84
2019-11-18 23:00:00 10.4 14 Noroeste 23 Noroeste 0.5 -- -- 73
2019-11-18 22:00:00 11.2 4 Noroeste 12 Norte 0 -- -- 59
2019-11-18 21:00:00 11.2 0 Calma 10 Norte 0 -- -- 60
2019-11-18 20:00:00 12 4 Norte 15 Norte 0 -- -- 57
2019-11-18 19:00:00 12.5 5 Norte 19 Norte 0 -- -- 57
2019-11-18 18:00:00 12.9 10 Norte 31 Norte 0 -- -- 58
2019-11-18 17:00:00 13.2 14 Norte 28 Nordeste 0 -- -- 60
2019-11-18 16:00:00 13.8 16 Norte 29 Nordeste 0 -- -- 63
2019-11-18 15:00:00 13.2 11 Nordeste 30 Nordeste 0.1 -- -- 72
2019-11-18 14:00:00 15 13 Norte 34 Norte 0 -- -- 60
2019-11-18 13:00:00 15.7 10 Norte 27 Norte 0 -- -- 55
2019-11-18 12:00:00 14.7 8 Norte 20 Nordeste 0 -- -- 59
2019-11-18 11:00:00 14.2 8 Noroeste 24 Norte 0 -- -- 59
2019-11-18 10:00:00 14 7 Norte 21 Norte 0 -- -- 60
2019-11-18 09:00:00 13.6 9 Nordeste 19 Norte 0 -- -- 67
2019-11-18 08:00:00 13.1 7 Norte 24 Norte 0 -- -- 78
2019-11-18 07:00:00 12.3 6 Norte 14 Norte 0 -- -- 84
2019-11-18 06:00:00 12.2 0 Calma 6 Noroeste 0.4 -- -- 90
2019-11-18 05:00:00 12.5 0 Calma 5 Norte 0.4 -- -- 88
2019-11-18 04:00:00 12.7 0 Calma 5 Noroeste 0.2 -- -- 87
2019-11-18 03:00:00 12.8 2 Noroeste 14 Sudoeste 0.4 -- -- 85
2019-11-18 02:00:00 13.2 5 Sudoeste 17 Oeste 0.5 -- -- 81
2019-11-18 01:00:00 14.7 6 Oeste 19 Sudoeste 0 -- -- 65
2019-11-18 00:00:00 15.3 5 Oeste 17 Sudoeste 0 -- -- 63
2019-11-17 23:00:00 15.7 5 Sudoeste 14 Sudoeste 0 -- -- 60
2019-11-17 22:00:00 14.5 2 Noroeste 10 Oeste 0 -- -- 61
2019-11-17 21:00:00 14.7 4 Oeste 17 Sudoeste 0 -- -- 59
2019-11-17 20:00:00 15.3 5 Sudoeste 22 Sudoeste 0 -- -- 54
2019-11-17 19:00:00 14.8 5 Oeste 21 Sudoeste 0 -- -- 54
2019-11-17 18:00:00 14.4 7 Oeste 22 Oeste 0 -- -- 55
2019-11-17 17:00:00 14.5 7 Oeste 27 Sudoeste 0 -- -- 53
2019-11-17 16:00:00 15 12 Sudoeste 31 Sudoeste 0 -- -- 50
2019-11-17 15:00:00 15.6 8 Sudoeste 36 Sudoeste 0 -- -- 47
2019-11-17 14:00:00 16 9 Sudoeste 32 Sudoeste 0 -- -- 49
2019-11-17 13:00:00 15.3 11 Oeste 31 Sudoeste 0 -- -- 51
2019-11-17 12:00:00 15.4 8 Oeste 29 Sudoeste 0 -- -- 44
2019-11-17 11:00:00 15.9 8 Oeste 23 Oeste 0 -- -- 44
2019-11-17 10:00:00 15 8 Oeste 25 Oeste 0 -- -- 44
2019-11-17 09:00:00 13.5 4 Oeste 19 Oeste 0 -- -- 50
2019-11-17 08:00:00 10.1 0 Calma 5 Oeste 0 -- -- 60
2019-11-17 07:00:00 11.2 0 Calma 10 Oeste 0 -- -- 54
2019-11-17 06:00:00 12.3 4 Oeste 14 Noroeste 0 -- -- 50
2019-11-17 05:00:00 12.6 4 Noroeste 19 Noroeste 0 -- -- 47
2019-11-17 04:00:00 12.9 7 Noroeste 27 Noroeste 0 -- -- 47
2019-11-17 03:00:00 13.5 10 Noroeste 35 Noroeste 0 -- -- 45
2019-11-17 02:00:00 13.7 9 Noroeste 27 Noroeste 0 -- -- 48
2019-11-17 01:00:00 13.5 7 Noroeste 28 Oeste 0.2 -- -- 53
2019-11-17 00:00:00 13.4 8 Noroeste 24 Norte 0 -- -- 51
2019-11-16 23:00:00 12.3 4 Noroeste 21 Oeste 0 -- -- 54
2019-11-16 22:00:00 12.4 10 Noroeste 26 Noroeste 0 -- -- 53
2019-11-16 21:00:00 11.8 3 Noroeste 17 Oeste 0 -- -- 60
2019-11-16 20:00:00 11.9 0 Calma 14 Noroeste 0 -- -- 67
2019-11-16 19:00:00 11.5 4 Norte 18 Nordeste 0 -- -- 72
2019-11-16 18:00:00 11.9 9 Norte 23 Norte 0 -- -- 63
2019-11-16 17:00:00 12.3 11 Norte 22 Noroeste 0.1 -- -- 63
2019-11-16 16:00:00 12.9 7 Nordeste 14 Noroeste 0 -- -- 67
2019-11-16 15:00:00 10.7 5 Norte 30 Norte 2.7 -- -- 83
2019-11-16 14:00:00 13.4 13 Norte 23 Norte 0 -- -- 60
2019-11-16 13:00:00 14.8 5 Norte 15 Nordeste 0 -- -- 55
2019-11-16 12:00:00 13.6 3 Nordeste 12 Noroeste 0 -- -- 59
2019-11-16 11:00:00 12 6 Noroeste 10 Noroeste 0 -- -- 60
2019-11-16 10:00:00 10.8 3 Norte 8 Noroeste 0 -- -- 64
2019-11-16 09:00:00 10.2 3 Noroeste 15 Nordeste 0 -- -- 67
2019-11-16 08:00:00 9.4 5 Nordeste 14 Nordeste 0 -- -- 73
2019-11-16 07:00:00 10.2 6 Nordeste 19 Norte 0 -- -- 67
2019-11-16 06:00:00 9.5 2 Norte 9 Noroeste 0 -- -- 70
2019-11-16 05:00:00 10 0 Calma 21 Nordeste 0 -- -- 70
2019-11-16 04:00:00 11.2 12 Nordeste 20 Norte 0 -- -- 66
2019-11-16 03:00:00 10.7 8 Norte 31 Nordeste 0 -- -- 68
2019-11-16 02:00:00 10.2 13 Norte 26 Norte 0.1 -- -- 70
2019-11-16 01:00:00 10.5 6 Nordeste 8 Nordeste 0 -- -- 66
2019-11-16 00:00:00 9.2 4 Norte 8 Norte 0 -- -- 73
2019-11-15 23:00:00 8.7 5 Norte 8 Norte 0 -- -- 75
2019-11-15 22:00:00 9.3 4 Norte 8 Norte 0 -- -- 72
2019-11-15 21:00:00 9.7 5 Norte 9 Norte 0 -- -- 70
2019-11-15 20:00:00 10.2 0 Calma 9 Norte 0 -- -- 65
2019-11-15 19:00:00 11.2 4 Norte 9 Norte 0 -- -- 58
2019-11-15 18:00:00 12 3 Noroeste 13 Oeste 0 -- -- 55
2019-11-15 17:00:00 13 4 Oeste 18 Noroeste 0 -- -- 53
2019-11-15 16:00:00 13.7 3 Oeste 16 Norte 0 -- -- 48
2019-11-15 15:00:00 14 5 Noroeste 23 Sudoeste 0 -- -- 44
2019-11-15 14:00:00 15.6 7 Sudoeste 19 Oeste 0 -- -- 46
2019-11-15 13:00:00 13.8 6 Noroeste 23 Sudoeste 0 -- -- 50
2019-11-15 12:00:00 13.3 5 Norte 20 Norte 0 -- -- 54
2019-11-15 11:00:00 13.3 4 Oeste 20 Noroeste 0 -- -- 55
2019-11-15 10:00:00 13 6 Noroeste 21 Oeste 0.1 -- -- 59
2019-11-15 09:00:00 12.3 6 Noroeste 23 Noroeste 0 -- -- 62
2019-11-15 08:00:00 12.3 4 Norte 31 Noroeste 0 -- -- 62
2019-11-15 07:00:00 13 4 Oeste 31 Oeste 0 -- -- 58
2019-11-15 06:00:00 13 7 Oeste 32 Sudoeste 0 -- -- 57
2019-11-15 05:00:00 13.3 10 Sudoeste 35 Oeste 0 -- -- 55
2019-11-15 04:00:00 9.7 2 Noroeste 8 Nordeste 0.6 -- -- 82
2019-11-15 03:00:00 9.7 5 Norte 9 Nordeste 0 -- -- 83
2019-11-15 02:00:00 9.7 0 Calma 7 Norte 0 -- -- 80
2019-11-15 01:00:00 10 0 Calma 6 Noroeste 0 -- -- 82
2019-11-15 00:00:00 11.2 5 Noroeste 12 Noroeste 0.1 -- -- 67
2019-11-14 23:00:00 9.7 0 Calma 9 Este 0 -- -- 85
2019-11-14 22:00:00 10.7 2 Nordeste 8 Este 0 -- -- 81
2019-11-14 21:00:00 11.5 4 Norte 18 Noroeste 1 -- -- 80
2019-11-14 20:00:00 12.8 0 Calma 10 Oeste 0 -- -- 71
2019-11-14 19:00:00 12.5 4 Noroeste 15 Sudoeste 0 -- -- 72
2019-11-14 18:00:00 12.6 5 Oeste 17 Oeste 0.1 -- -- 74
2019-11-14 17:00:00 12.5 2 Nordeste 18 Noroeste 0.9 -- -- 77
2019-11-14 16:00:00 14.8 8 Noroeste 26 Noroeste 0 -- -- 59
2019-11-14 15:00:00 16 7 Noroeste 35 Oeste 0 -- -- 55
2019-11-14 14:00:00 16.9 9 Oeste 34 Sudoeste 0 -- -- 56
2019-11-14 13:00:00 17.3 6 Oeste 37 Oeste 0 -- -- 60
2019-11-14 12:00:00 18.1 11 Sudoeste 44 Oeste 0 -- -- 74
2019-11-14 11:00:00 18.3 17 Sudoeste 39 Sudoeste 0 -- -- 79
2019-11-14 10:00:00 18.2 14 Sudoeste 44 Sur 0 -- -- 80
2019-11-14 09:00:00 18.1 17 Sudoeste 38 Sur 0 -- -- 79
2019-11-14 08:00:00 17.5 19 Sudoeste 43 Sudoeste 0 -- -- 74
2019-11-14 07:00:00 16.9 17 Sur 34 Sudoeste 0 -- -- 72
2019-11-14 06:00:00 12.9 0 Calma 15 Sur 0 -- -- 85
2019-11-14 05:00:00 10.7 3 Norte 8 Nordeste 0 -- -- 90
2019-11-14 04:00:00 10.5 3 Norte 7 Norte 0 -- -- 91
2019-11-14 03:00:00 10.1 3 Norte 6 Norte 0 -- -- 91
2019-11-14 02:00:00 9.9 0 Calma 7 Nordeste 0 -- -- 90
2019-11-14 01:00:00 9.7 2 Norte 7 Norte 0 -- -- 90
2019-11-14 00:00:00 9.9 3 Nordeste 8 Nordeste 0 -- -- 89
2019-11-13 23:00:00 10.3 0 Calma 6 Noroeste 0 -- -- 86
2019-11-13 22:00:00 10.8 0 Calma 6 Noroeste 0 -- -- 84
2019-11-13 21:00:00 11.7 0 Calma 15 Norte 0 -- -- 81
2019-11-13 20:00:00 12.6 7 Norte 15 Noroeste 0 -- -- 77
2019-11-13 19:00:00 12.7 6 Noroeste 12 Nordeste 0 -- -- 78
2019-11-13 18:00:00 13 5 Noroeste 17 Norte 0.1 -- -- 80
2019-11-13 17:00:00 14 3 Noroeste 15 Norte 0 -- -- 71
2019-11-13 16:00:00 13.7 2 Noroeste 17 Nordeste 0 -- -- 82
2019-11-13 15:00:00 14.1 7 Nordeste 14 Nordeste 0 -- -- 81
2019-11-13 14:00:00 14.3 7 Nordeste 15 Nordeste 0 -- -- 80
2019-11-13 13:00:00 14.7 5 Norte 14 Norte 0.1 -- -- 84
2019-11-13 12:00:00 14.2 0 Calma 8 Nordeste 0 -- -- 87
2019-11-13 11:00:00 13.3 0 Calma 8 Norte 0.4 -- -- 87
2019-11-13 10:00:00 13.1 0 Calma 8 Noroeste 1.8 -- -- 88
2019-11-13 09:00:00 13 0 Calma 6 Norte 1.3 -- -- 81
2019-11-13 08:00:00 12.8 2 Nordeste 6 Noroeste 0 -- -- 74
2019-11-13 07:00:00 12.4 3 Nordeste 5 Nordeste 0 -- -- 76
2019-11-13 06:00:00 12.6 0 Calma 4 Norte 0 -- -- 72
2019-11-13 05:00:00 13.3 0 Calma 6 Norte 0 -- -- 67
2019-11-13 04:00:00 14.2 6 Noroeste 12 Noroeste 0 -- -- 60
2019-11-13 03:00:00 13.2 0 Calma 7 Noroeste 0 -- -- 62
2019-11-13 02:00:00 14.2 3 Noroeste 9 Oeste 0 -- -- 58
2019-11-13 01:00:00 12.9 0 Calma 7 Sudoeste 0 -- -- 63
2019-11-13 00:00:00 13.9 3 Sudoeste 10 Oeste 0 -- -- 61
2019-11-12 23:00:00 13.5 2 Sudoeste 8 Oeste 0 -- -- 63
2019-11-12 22:00:00 14 3 Oeste 9 Oeste 0 -- -- 60
2019-11-12 21:00:00 14.4 6 Sudoeste 12 Sur 0 -- -- 57
2019-11-12 20:00:00 14.5 0 Calma 16 Sudeste 0 -- -- 55
2019-11-12 19:00:00 14.7 0 Calma 12 Noroeste 0 -- -- 54
2019-11-12 18:00:00 15.1 7 Noroeste 27 Noroeste 0 -- -- 51
2019-11-12 17:00:00 15.1 8 Noroeste 22 Noroeste 0 -- -- 54
2019-11-12 16:00:00 15.7 8 Noroeste 21 Noroeste 0 -- -- 51
2019-11-12 15:00:00 17 8 Noroeste 22 Norte 0 -- -- 47
2019-11-12 14:00:00 16.7 7 Noroeste 27 Noroeste 0 -- -- 48
2019-11-12 13:00:00 16.2 8 Noroeste 23 Oeste 0 -- -- 47
2019-11-12 12:00:00 16.1 3 Noroeste 17 Noroeste 0 -- -- 55
2019-11-12 11:00:00 15.6 5 Sur 10 Sur 0 -- -- 61
2019-11-12 10:00:00 15.2 0 Calma 10 Norte 0 -- -- 65
2019-11-12 09:00:00 12.9 2 Norte 6 Norte 0 -- -- 74
2019-11-12 08:00:00 12 2 Norte 8 Nordeste 0 -- -- 80
2019-11-12 07:00:00 12.2 0 Calma 8 Nordeste 0 -- -- 81
2019-11-12 06:00:00 12.1 0 Calma 9 Noroeste 0 -- -- 80
2019-11-12 05:00:00 11.7 3 Noroeste 7 Norte 0 -- -- 81
2019-11-12 04:00:00 11.2 3 Este 6 Nordeste 0 -- -- 84
2019-11-12 03:00:00 11.3 0 Calma 5 Noroeste 0 -- -- 81
2019-11-12 02:00:00 11.4 0 Calma 13 Este 0 -- -- 73
2019-11-12 01:00:00 11.1 0 Calma 7 Noroeste 0 -- -- 71
2019-11-12 00:00:00 11.2 0 Calma 5 Nordeste 0 -- -- 69
2019-11-11 23:00:00 12 0 Calma 8 Oeste 0 -- -- 63
2019-11-11 22:00:00 12.1 3 Sudoeste 7 Sudoeste 0 -- -- 59
2019-11-11 21:00:00 12.9 5 Norte 12 Noroeste 0 -- -- 57
2019-11-11 20:00:00 14 8 Noroeste 24 Noroeste 0 -- -- 54
2019-11-11 19:00:00 13.8 8 Norte 21 Noroeste 0 -- -- 57
2019-11-11 18:00:00 13.9 8 Noroeste 18 Norte 0 -- -- 58
2019-11-11 17:00:00 14.1 10 Norte 22 Norte 0 -- -- 58
2019-11-11 16:00:00 14.9 9 Nordeste 29 Norte 0 -- -- 57
2019-11-11 15:00:00 15.1 16 Nordeste 35 Nordeste 0 -- -- 56
2019-11-11 14:00:00 14.2 10 Norte 31 Norte 0 -- -- 61
2019-11-11 13:00:00 14.4 14 Norte 32 Norte 0 -- -- 55
2019-11-11 12:00:00 13.9 13 Norte 27 Nordeste 0 -- -- 58
2019-11-11 11:00:00 14.6 10 Norte 33 Nordeste 0 -- -- 51
2019-11-11 10:00:00 15 12 Norte 39 Norte 0 -- -- 47
2019-11-11 09:00:00 14.4 15 Norte 50 Norte 0 -- -- 54
2019-11-11 08:00:00 13.2 5 Nordeste 31 Norte 0 -- -- 61
2019-11-11 07:00:00 13.3 15 Noroeste 36 Noroeste 0 -- -- 61
2019-11-11 06:00:00 12.8 6 Noroeste 24 Noroeste 0 -- -- 63
2019-11-11 05:00:00 12.5 7 Noroeste 22 Noroeste 0 -- -- 66
2019-11-11 04:00:00 12.3 7 Noroeste 24 Noroeste 0.1 -- -- 69
2019-11-11 03:00:00 11.7 6 Noroeste 13 Noroeste 0 -- -- 68
2019-11-11 02:00:00 11.7 7 Noroeste 14 Noroeste 0 -- -- 70
2019-11-11 01:00:00 10.9 6 Noroeste 16 Noroeste 0 -- -- 72
2019-11-11 00:00:00 9.9 3 Noroeste 12 Noroeste 0.2 -- -- 82
2019-11-10 23:00:00 10.3 6 Noroeste 23 Noroeste 2.6 -- -- 76
2019-11-10 22:00:00 10.2 9 Noroeste 26 Nordeste 13.3 -- -- 74
2019-11-10 21:00:00 13.4 4 Norte 19 Oeste 0 -- -- 59
2019-11-10 20:00:00 13.5 6 Noroeste 24 Norte 0 -- -- 58
2019-11-10 19:00:00 13.5 6 Noroeste 22 Norte 0 -- -- 55
2019-11-10 18:00:00 13.2 7 Noroeste 21 Norte 0 -- -- 60
2019-11-10 17:00:00 13.1 8 Noroeste 23 Norte 0 -- -- 61
2019-11-10 16:00:00 12.3 4 Noroeste 15 Oeste 0 -- -- 70
2019-11-10 15:00:00 10.9 0 Calma 21 Noroeste 0.7 -- -- 82
2019-11-10 14:00:00 11.2 4 Nordeste 9 Nordeste 1.2 -- -- 76
2019-11-10 13:00:00 10.6 0 Calma 10 Noroeste 0 -- -- 74
2019-11-10 12:00:00 10 9 Norte 39 Norte 0.5 -- -- 77
2019-11-10 11:00:00 9.8 12 Norte 35 Norte 0.7 -- -- 80
2019-11-10 10:00:00 9.3 11 Norte 46 Nordeste 5.5 -- -- 82
2019-11-10 09:00:00 11.3 6 Noroeste 28 Noroeste 2.8 -- -- 81
2019-11-10 08:00:00 12 8 Noroeste 28 Noroeste 0.6 -- -- 77
2019-11-10 07:00:00 12.4 9 Norte 31 Noroeste 0.1 -- -- 76
2019-11-10 06:00:00 12.2 11 Noroeste 55 Norte 1 -- -- 79
2019-11-10 05:00:00 15.8 3 Noroeste 14 Noroeste 0 -- -- 55
2019-11-10 04:00:00 15.8 5 Norte 11 Noroeste 0 -- -- 57
2019-11-10 03:00:00 16.6 5 Noroeste 17 Noroeste 0 -- -- 54
2019-11-10 02:00:00 16.7 3 Noroeste 12 Oeste 0 -- -- 63
2019-11-10 01:00:00 16.9 4 Oeste 23 Oeste 0 -- -- 60
2019-11-10 00:00:00 17.1 7 Oeste 25 Oeste 0 -- -- 54